Time;durP1;ratioP1;P1;durP2;ratioP2;P2;SDS_P1;SDS_P2;PMS_P1;PMS_P2;Temp;Humidity;BMP_temperature;BMP_pressure;BME280_temperature;BME280_humidity;BME280_pressure;Samples;Min_cycle;Max_cycle;Signal;HPM_P1;HPM_P2
2022/12/28 00:01:25;;;;;;;2.55;0.75;;;6.30;90.70;;;;;;5028476;28;20041;-71
2022/12/28 00:03:52;;;;;;;0.10;0.10;;;6.20;90.80;;;;;;5012032;28;20038;-71
2022/12/28 00:06:19;;;;;;;0.00;0.00;;;6.30;90.80;;;;;;5029798;28;20072;-70
2022/12/28 00:08:45;;;;;;;0.10;0.10;;;6.20;90.80;;;;;;5029090;28;20037;-71
2022/12/28 00:11:13;;;;;;;0.00;0.00;;;6.20;90.80;;;;;;5030862;28;20111;-71
2022/12/28 00:13:39;;;;;;;0.00;0.00;;;6.20;90.90;;;;;;5028052;28;20502;-71
2022/12/28 00:16:07;;;;;;;1.15;1.08;;;6.20;90.90;;;;;;5026155;28;20147;-71
2022/12/28 00:18:33;;;;;;;0.00;0.00;;;6.20;90.90;;;;;;5030513;28;20045;-71
2022/12/28 00:21:00;;;;;;;1.88;1.77;;;6.10;91.00;;;;;;5027759;28;20099;-71
2022/12/28 00:23:27;;;;;;;0.10;0.10;;;6.20;91.00;;;;;;5030595;28;20041;-71
2022/12/28 00:25:53;;;;;;;0.10;0.10;;;6.20;90.90;;;;;;4997105;28;20821;-70
2022/12/28 00:28:18;;;;;;;0.00;0.00;;;6.20;90.90;;;;;;5026765;28;20124;-71
2022/12/28 00:30:44;;;;;;;0.00;0.00;;;6.20;91.00;;;;;;5009652;28;20064;-71
2022/12/28 00:33:10;;;;;;;0.75;0.75;;;6.20;91.00;;;;;;5030412;28;20044;-71
2022/12/28 00:35:35;;;;;;;0.05;0.05;;;6.20;91.10;;;;;;5028203;28;21577;-70
2022/12/28 00:38:01;;;;;;;0.00;0.00;;;6.20;91.20;;;;;;5011863;28;20050;-71
2022/12/28 00:40:26;;;;;;;0.65;0.65;;;6.10;91.20;;;;;;5010799;28;20177;-71
2022/12/28 00:42:52;;;;;;;0.00;0.00;;;6.20;91.30;;;;;;5011369;28;20485;-70
2022/12/28 00:45:17;;;;;;;0.00;0.00;;;6.10;91.40;;;;;;5028664;28;20148;-70
2022/12/28 00:47:43;;;;;;;0.00;0.00;;;6.20;91.20;;;;;;5028897;28;20072;-71
2022/12/28 00:50:09;;;;;;;0.10;0.10;;;6.20;91.20;;;;;;5029298;28;20193;-71
2022/12/28 00:52:34;;;;;;;0.00;0.00;;;6.20;91.30;;;;;;5029661;28;20059;-71
2022/12/28 00:55:00;;;;;;;0.03;0.03;;;6.20;91.20;;;;;;5027382;28;20052;-71
2022/12/28 00:57:25;;;;;;;0.00;0.00;;;6.20;91.20;;;;;;5010654;28;20120;-71
2022/12/28 00:59:51;;;;;;;0.00;0.00;;;6.30;91.20;;;;;;5011319;28;20038;-71
2022/12/28 01:02:16;;;;;;;0.00;0.00;;;6.30;91.10;;;;;;5026684;28;20131;-71
2022/12/28 01:04:42;;;;;;;0.00;0.00;;;6.30;91.20;;;;;;5029890;28;20095;-71
2022/12/28 01:07:08;;;;;;;0.00;0.00;;;6.30;91.00;;;;;;5028022;28;20508;-71
2022/12/28 01:09:33;;;;;;;0.00;0.00;;;6.20;91.20;;;;;;5007293;28;20048;-71
2022/12/28 01:11:59;;;;;;;0.10;0.10;;;6.30;91.20;;;;;;5029590;28;20084;-71
2022/12/28 01:14:24;;;;;;;0.00;0.00;;;6.30;91.30;;;;;;5028274;28;20033;-71
2022/12/28 01:16:50;;;;;;;0.00;0.00;;;6.30;91.30;;;;;;5025970;28;20089;-71
2022/12/28 01:19:20;;;;;;;0.00;0.00;;;6.20;91.50;;;;;;5011055;28;20097;-71
2022/12/28 01:21:48;;;;;;;0.10;0.10;;;6.20;91.50;;;;;;4993097;28;20140;-71
2022/12/28 01:24:14;;;;;;;0.10;0.10;;;6.20;91.60;;;;;;5026898;28;20134;-71
2022/12/28 01:26:39;;;;;;;0.00;0.00;;;6.20;91.60;;;;;;5028868;28;20080;-70
2022/12/28 01:29:05;;;;;;;1.95;1.85;;;6.20;91.60;;;;;;5008103;28;20041;-70
2022/12/28 01:31:31;;;;;;;0.10;0.10;;;6.20;91.70;;;;;;5011114;28;20535;-71
2022/12/28 01:33:57;;;;;;;0.35;0.35;;;6.20;91.60;;;;;;5029046;28;20049;-70
2022/12/28 01:36:25;;;;;;;0.22;0.22;;;6.20;91.90;;;;;;4992739;28;20119;-71
2022/12/28 01:38:53;;;;;;;0.00;0.00;;;6.20;91.80;;;;;;5003305;28;20041;-70
2022/12/28 01:41:20;;;;;;;0.00;0.00;;;6.20;91.90;;;;;;5010780;28;20725;-71
2022/12/28 01:43:47;;;;;;;0.00;0.00;;;6.30;92.00;;;;;;4988466;28;20045;-71
2022/12/28 01:46:16;;;;;;;0.20;0.20;;;6.30;91.90;;;;;;5026881;28;20413;-71
2022/12/28 01:49:19;;;;;;;0.00;0.00;;;6.20;91.90;;;;;;5007575;28;20045;-71
2022/12/28 01:51:45;;;;;;;0.00;0.00;;;6.30;91.90;;;;;;4950244;28;20053;-70
2022/12/28 01:54:10;;;;;;;0.00;0.00;;;6.20;92.10;;;;;;4994726;28;20531;-71
2022/12/28 01:56:37;;;;;;;0.00;0.00;;;6.20;92.20;;;;;;5008443;28;20080;-71
2022/12/28 01:59:03;;;;;;;0.00;0.00;;;6.20;92.40;;;;;;5028526;28;20053;-70
2022/12/28 02:01:28;;;;;;;0.00;0.00;;;6.30;92.60;;;;;;5008885;28;20050;-70
2022/12/28 02:03:54;;;;;;;0.00;0.00;;;6.30;92.60;;;;;;4994480;28;20452;-70
2022/12/28 02:06:20;;;;;;;0.00;0.00;;;6.40;92.40;;;;;;5027877;28;20721;-71
2022/12/28 02:09:10;;;;;;;2.22;0.93;;;6.30;92.50;;;;;;5026277;28;20052;-70
2022/12/28 02:11:36;;;;;;;0.00;0.00;;;6.30;92.90;;;;;;5025181;28;20453;-71
2022/12/28 02:14:05;;;;;;;0.00;0.00;;;6.40;92.90;;;;;;5027108;28;20045;-70
2022/12/28 02:16:30;;;;;;;0.00;0.00;;;6.40;93.00;;;;;;5024951;28;20064;-71
2022/12/28 02:18:56;;;;;;;0.20;0.20;;;6.40;93.20;;;;;;5009254;28;20041;-70
2022/12/28 02:21:27;;;;;;;0.00;0.00;;;6.50;93.20;;;;;;5026540;28;20395;-70
2022/12/28 02:24:08;;;;;;;0.00;0.00;;;6.60;92.90;;;;;;5027453;28;20049;-70
2022/12/28 02:26:42;;;;;;;0.00;0.00;;;6.50;92.90;;;;;;5010283;28;20509;-70
2022/12/28 02:29:43;;;;;;;0.10;0.10;;;6.60;93.00;;;;;;5007297;28;20041;-70
2022/12/28 02:32:34;;;;;;;0.00;0.00;;;6.60;92.90;;;;;;4977817;28;20067;-70
2022/12/28 02:35:04;;;;;;;0.10;0.10;;;6.60;93.10;;;;;;5026089;28;20038;-70
2022/12/28 02:37:39;;;;;;;0.55;0.55;;;6.60;93.00;;;;;;5026079;28;20267;-70
2022/12/28 02:40:13;;;;;;;0.57;0.57;;;6.70;93.00;;;;;;5032185;28;20041;-70
2022/12/28 02:42:40;;;;;;;1.40;0.75;;;6.60;93.00;;;;;;5029842;28;20041;-70
2022/12/28 02:51:07;;;;;;;0.00;0.00;;;6.70;93.10;;;;;;5028944;28;20061;-70
2022/12/28 02:53:42;;;;;;;0.50;0.50;;;6.70;93.10;;;;;;4998343;28;20051;-70
2022/12/28 02:56:32;;;;;;;0.00;0.00;;;6.70;93.10;;;;;;5031277;28;20106;-70
2022/12/28 02:59:19;;;;;;;0.00;0.00;;;6.70;93.30;;;;;;5026656;28;20050;-70
2022/12/28 03:01:57;;;;;;;0.00;0.00;;;6.80;93.30;;;;;;5031563;28;20542;-70
2022/12/28 03:04:54;;;;;;;0.10;0.10;;;6.70;93.30;;;;;;5030130;28;20623;-70
2022/12/28 03:08:34;;;;;;;0.00;0.00;;;6.70;93.40;;;;;;5014601;28;20725;-70
2022/12/28 03:11:01;;;;;;;0.10;0.10;;;6.70;93.60;;;;;;4994183;28;20050;-70
2022/12/28 03:13:42;;;;;;;2.40;0.98;;;6.80;93.50;;;;;;5012682;28;20057;-70
2022/12/28 03:33:07;;;;;;;1.48;1.38;;;6.80;93.60;;;;;;5028113;28;20049;-70
2022/12/28 03:35:49;;;;;;;0.05;0.05;;;6.90;93.50;;;;;;5030085;28;20095;-70
2022/12/28 03:38:26;;;;;;;0.10;0.10;;;6.80;93.60;;;;;;5027240;28;20053;-70
2022/12/28 03:40:59;;;;;;;0.30;0.30;;;6.80;93.60;;;;;;5030816;28;20521;-70
2022/12/28 03:43:39;;;;;;;0.10;0.10;;;6.80;93.80;;;;;;5008221;28;20109;-70
2022/12/28 03:46:23;;;;;;;0.00;0.00;;;6.80;93.60;;;;;;5011607;28;20040;-70
2022/12/28 03:48:50;;;;;;;0.00;0.00;;;6.80;93.80;;;;;;5011178;28;20795;-70
2022/12/28 03:51:20;;;;;;;0.20;0.20;;;6.80;93.80;;;;;;5007188;28;20038;-70
2022/12/28 03:53:47;;;;;;;0.75;0.75;;;6.80;93.80;;;;;;5010267;28;20042;-70
2022/12/28 03:56:15;;;;;;;0.00;0.00;;;6.80;93.80;;;;;;5011054;28;20486;-70
2022/12/28 03:58:42;;;;;;;0.00;0.00;;;6.80;94.00;;;;;;5009062;28;20042;-70
2022/12/28 04:01:08;;;;;;;0.00;0.00;;;6.90;94.00;;;;;;5011300;28;20145;-70
2022/12/28 04:03:34;;;;;;;0.00;0.00;;;6.90;93.90;;;;;;5008055;28;20060;-70
2022/12/28 04:06:00;;;;;;;0.00;0.00;;;6.90;94.00;;;;;;5010327;28;20049;-70
2022/12/28 04:08:26;;;;;;;0.00;0.00;;;6.90;93.90;;;;;;5010362;28;20042;-70
2022/12/28 04:10:52;;;;;;;0.25;0.25;;;6.80;94.00;;;;;;5007769;28;20125;-71
2022/12/28 04:13:18;;;;;;;0.57;0.57;;;6.90;94.20;;;;;;5010876;28;20120;-71
2022/12/28 04:15:43;;;;;;;0.10;0.10;;;6.80;94.20;;;;;;5011171;28;20136;-70
2022/12/28 04:18:09;;;;;;;0.00;0.00;;;6.80;94.30;;;;;;5006732;28;20165;-70
2022/12/28 04:20:34;;;;;;;0.00;0.00;;;6.80;94.30;;;;;;5009893;28;20041;-70
2022/12/28 04:23:00;;;;;;;0.00;0.00;;;6.80;94.20;;;;;;5010831;28;20046;-71
2022/12/28 04:25:25;;;;;;;0.20;0.20;;;6.90;94.30;;;;;;5008030;28;20042;-70
2022/12/28 04:27:51;;;;;;;1.50;1.40;;;6.80;94.30;;;;;;5009160;28;20074;-70
2022/12/28 04:30:17;;;;;;;0.00;0.00;;;6.90;94.40;;;;;;5010284;28;20046;-70
2022/12/28 04:32:42;;;;;;;0.10;0.10;;;6.90;94.30;;;;;;5008489;28;20034;-70
2022/12/28 04:35:08;;;;;;;0.05;0.05;;;6.90;94.30;;;;;;5009377;28;20052;-70
2022/12/28 04:37:36;;;;;;;0.10;0.10;;;6.90;94.40;;;;;;5010257;28;20061;-70
2022/12/28 04:40:02;;;;;;;0.00;0.00;;;6.90;94.50;;;;;;4988222;28;20037;-69
2022/12/28 04:42:28;;;;;;;0.55;0.55;;;6.80;94.40;;;;;;4988252;28;20065;-70
2022/12/28 04:44:53;;;;;;;0.00;0.00;;;6.90;94.40;;;;;;5027296;28;20409;-70
2022/12/28 04:47:19;;;;;;;0.05;0.05;;;7.00;94.30;;;;;;5027952;28;20094;-70
2022/12/28 04:49:45;;;;;;;0.40;0.40;;;6.90;94.60;;;;;;5029885;28;20052;-70
2022/12/28 04:52:11;;;;;;;0.00;0.00;;;6.90;94.60;;;;;;5026773;28;20064;-70
2022/12/28 04:54:36;;;;;;;0.00;0.00;;;6.90;94.60;;;;;;5011370;28;20049;-70
2022/12/28 04:57:02;;;;;;;0.00;0.00;;;6.90;94.60;;;;;;5030392;28;20041;-70
2022/12/28 04:59:27;;;;;;;0.00;0.00;;;6.90;94.60;;;;;;5027376;28;20091;-70
2022/12/28 05:01:53;;;;;;;0.10;0.10;;;6.90;94.60;;;;;;5028220;28;20057;-70
2022/12/28 05:04:18;;;;;;;0.20;0.20;;;6.90;94.60;;;;;;5029437;28;20132;-70
2022/12/28 05:06:44;;;;;;;0.00;0.00;;;6.90;94.70;;;;;;5026873;28;20049;-70
2022/12/28 05:09:10;;;;;;;0.20;0.20;;;6.90;94.70;;;;;;5029739;28;20045;-70
2022/12/28 05:11:35;;;;;;;0.00;0.00;;;6.90;94.70;;;;;;5026455;28;20049;-70
2022/12/28 05:14:01;;;;;;;0.00;0.00;;;7.00;94.70;;;;;;5009358;28;20048;-70
2022/12/28 05:16:27;;;;;;;0.00;0.00;;;7.00;94.70;;;;;;5028040;28;20128;-70
2022/12/28 05:18:55;;;;;;;0.00;0.00;;;7.00;94.70;;;;;;5027942;28;20033;-70
2022/12/28 05:21:23;;;;;;;0.10;0.10;;;7.00;94.70;;;;;;5012244;28;20498;-70
2022/12/28 05:23:49;;;;;;;0.00;0.00;;;7.00;94.70;;;;;;5007788;28;20402;-70
2022/12/28 05:26:18;;;;;;;0.10;0.10;;;7.10;94.70;;;;;;5027145;28;20080;-70
2022/12/28 05:28:44;;;;;;;0.00;0.00;;;7.00;94.70;;;;;;5028374;28;20069;-70
2022/12/28 05:31:13;;;;;;;0.00;0.00;;;7.00;94.90;;;;;;5029718;28;20095;-70
2022/12/28 05:33:39;;;;;;;0.00;0.00;;;7.10;94.90;;;;;;5026799;28;20041;-70
2022/12/28 05:36:07;;;;;;;0.10;0.10;;;7.00;94.90;;;;;;5029102;28;20045;-70
2022/12/28 05:38:33;;;;;;;0.00;0.00;;;7.10;94.90;;;;;;5010694;28;20080;-70
2022/12/28 05:41:08;;;;;;;0.00;0.00;;;7.10;94.90;;;;;;5027261;28;20092;-71
2022/12/28 05:43:34;;;;;;;0.10;0.10;;;7.10;94.90;;;;;;5009593;28;20041;-70
2022/12/28 05:46:05;;;;;;;0.00;0.00;;;7.20;95.10;;;;;;5026284;28;20049;-70
2022/12/28 05:48:36;;;;;;;0.00;0.00;;;7.20;95.10;;;;;;5027039;28;20101;-70
2022/12/28 05:51:10;;;;;;;0.40;0.40;;;7.20;95.10;;;;;;5029038;28;20033;-70
2022/12/28 05:53:36;;;;;;;0.00;0.00;;;7.30;95.10;;;;;;5024970;28;20112;-70
2022/12/28 05:56:02;;;;;;;0.00;0.00;;;7.40;95.10;;;;;;5027874;28;20049;-70
2022/12/28 05:58:28;;;;;;;0.00;0.00;;;7.40;95.00;;;;;;5020744;28;20371;-69
2022/12/28 06:01:06;;;;;;;0.00;0.00;;;7.50;95.10;;;;;;5027448;28;20076;-70
2022/12/28 06:03:31;;;;;;;0.00;0.00;;;7.50;95.20;;;;;;5029022;28;20099;-70
2022/12/28 06:06:02;;;;;;;2.50;1.65;;;7.60;95.30;;;;;;5024298;28;20053;-70
2022/12/28 06:08:27;;;;;;;0.00;0.00;;;7.60;95.40;;;;;;5027390;28;20041;-70
2022/12/28 06:10:53;;;;;;;0.00;0.00;;;7.70;95.30;;;;;;5030468;28;20045;-70
2022/12/28 06:13:19;;;;;;;0.00;0.00;;;7.70;95.30;;;;;;4988931;28;20037;-70
2022/12/28 06:15:44;;;;;;;0.00;0.00;;;7.80;95.40;;;;;;5027732;28;20391;-70
2022/12/28 06:18:10;;;;;;;0.17;0.17;;;7.90;95.50;;;;;;5028135;28;20070;-70
2022/12/28 06:20:35;;;;;;;0.25;0.25;;;7.90;95.40;;;;;;5023496;28;20045;-70
2022/12/28 06:23:01;;;;;;;0.10;0.10;;;7.90;95.40;;;;;;5008965;28;20041;-70
2022/12/28 06:25:26;;;;;;;0.00;0.00;;;7.90;95.40;;;;;;5028202;28;20080;-70
2022/12/28 06:27:52;;;;;;;0.00;0.00;;;7.90;95.40;;;;;;5023596;28;20041;-70
2022/12/28 06:30:18;;;;;;;0.00;0.00;;;7.80;95.40;;;;;;5028160;28;20084;-70
2022/12/28 06:32:43;;;;;;;0.00;0.00;;;7.70;95.40;;;;;;5007513;28;20041;-70
2022/12/28 06:35:09;;;;;;;0.20;0.20;;;7.70;95.30;;;;;;5025161;28;20056;-70
2022/12/28 06:37:34;;;;;;;0.10;0.10;;;7.70;95.30;;;;;;5027439;28;20046;-69
2022/12/28 06:40:00;;;;;;;0.00;0.00;;;7.70;95.30;;;;;;4993210;28;20528;-70
2022/12/28 06:42:25;;;;;;;0.00;0.00;;;7.70;95.30;;;;;;5027036;28;20547;-70
2022/12/28 06:44:51;;;;;;;0.00;0.00;;;7.70;95.20;;;;;;5009666;23;20061;-70
2022/12/28 06:47:16;;;;;;;0.00;0.00;;;7.70;95.20;;;;;;4977367;28;20055;-70
2022/12/28 06:49:42;;;;;;;0.00;0.00;;;7.60;95.20;;;;;;4988891;28;20081;-70
2022/12/28 06:52:07;;;;;;;0.00;0.00;;;7.60;95.30;;;;;;4988048;28;20042;-70
2022/12/28 06:54:33;;;;;;;0.00;0.00;;;7.60;95.30;;;;;;4984359;28;20096;-70
2022/12/28 06:56:59;;;;;;;0.00;0.00;;;7.60;95.30;;;;;;4990571;28;20046;-70
2022/12/28 06:59:24;;;;;;;0.05;0.05;;;7.60;95.30;;;;;;4985011;28;20041;-71
2022/12/28 07:01:50;;;;;;;0.10;0.10;;;7.60;95.30;;;;;;4987354;28;20081;-71
2022/12/28 07:04:15;;;;;;;0.00;0.00;;;7.60;95.30;;;;;;5008099;28;20041;-71
2022/12/28 07:06:43;;;;;;;0.00;0.00;;;7.60;95.30;;;;;;4989628;28;20042;-71
2022/12/28 07:09:14;;;;;;;7.80;2.63;;;7.70;95.30;;;;;;4987973;28;20061;-71
2022/12/28 07:11:40;;;;;;;0.00;0.00;;;7.70;95.30;;;;;;5008388;28;20058;-71
2022/12/28 07:14:06;;;;;;;0.13;0.13;;;7.70;95.30;;;;;;5005951;28;20558;-71
2022/12/28 07:16:32;;;;;;;0.00;0.00;;;7.80;95.40;;;;;;5004910;28;20137;-71
2022/12/28 07:18:59;;;;;;;0.00;0.00;;;8.00;95.60;;;;;;4971859;28;20057;-71
2022/12/28 07:21:28;;;;;;;0.00;0.00;;;8.00;95.50;;;;;;5003386;28;20053;-71
2022/12/28 07:23:55;;;;;;;0.00;0.00;;;8.10;95.50;;;;;;5009552;28;20414;-71
2022/12/28 07:26:27;;;;;;;0.00;0.00;;;8.20;95.60;;;;;;4992042;28;20057;-71
2022/12/28 07:28:54;;;;;;;0.10;0.10;;;8.30;95.60;;;;;;5006295;28;20534;-71
2022/12/28 07:31:23;;;;;;;0.32;0.32;;;8.40;95.60;;;;;;5009572;28;20128;-71
2022/12/28 07:33:51;;;;;;;0.00;0.00;;;8.40;95.50;;;;;;4991868;28;20044;-71
2022/12/28 07:36:19;;;;;;;0.20;0.20;;;8.50;95.50;;;;;;5008225;28;20610;-71
2022/12/28 07:38:45;;;;;;;0.35;0.35;;;8.50;95.50;;;;;;5010928;28;20080;-71
2022/12/28 07:41:20;;;;;;;0.00;0.00;;;8.60;95.50;;;;;;4988593;28;20156;-71
2022/12/28 07:43:45;;;;;;;0.00;0.00;;;8.60;95.40;;;;;;5005259;28;20458;-71
2022/12/28 07:46:23;;;;;;;0.00;0.00;;;8.50;95.40;;;;;;5010104;28;20053;-70
2022/12/28 07:48:50;;;;;;;0.03;0.03;;;8.60;95.40;;;;;;4976530;28;20450;-71
2022/12/28 07:51:17;;;;;;;0.00;0.00;;;8.50;95.40;;;;;;5012295;28;20049;-71
2022/12/28 07:53:45;;;;;;;0.10;0.10;;;8.60;95.40;;;;;;5012035;28;20068;-71
2022/12/28 07:56:11;;;;;;;0.00;0.00;;;8.60;95.40;;;;;;4989937;28;20490;-70
2022/12/28 07:58:37;;;;;;;0.10;0.10;;;8.50;95.40;;;;;;5010604;28;20100;-70
2022/12/28 08:01:13;;;;;;;0.10;0.10;;;8.60;95.30;;;;;;5012064;28;20046;-71
2022/12/28 08:03:40;;;;;;;0.00;0.00;;;8.60;95.30;;;;;;4991945;28;20194;-72
2022/12/28 08:06:19;;;;;;;0.00;0.00;;;8.50;95.30;;;;;;5009509;28;20141;-73
2022/12/28 08:08:47;;;;;;;0.00;0.00;;;8.50;95.30;;;;;;4989628;28;20049;-69
2022/12/28 08:11:21;;;;;;;0.08;0.08;;;8.40;95.30;;;;;;5007397;28;20049;-69
2022/12/28 08:13:49;;;;;;;0.00;0.00;;;8.40;95.10;;;;;;5008918;28;20490;-68
2022/12/28 08:16:20;;;;;;;0.17;0.17;;;8.30;95.20;;;;;;5009819;28;20050;-68
2022/12/28 08:18:46;;;;;;;0.00;0.00;;;8.40;95.20;;;;;;5009378;28;20395;-69
2022/12/28 08:21:18;;;;;;;0.00;0.00;;;8.40;95.20;;;;;;5004993;28;20042;-69
2022/12/28 08:23:44;;;;;;;0.20;0.20;;;8.30;95.10;;;;;;5004649;28;20426;-69
2022/12/28 08:26:11;;;;;;;0.25;0.25;;;8.30;95.20;;;;;;5006477;28;20045;-69
2022/12/28 08:28:37;;;;;;;0.00;0.00;;;8.40;95.10;;;;;;4990066;28;20049;-69
2022/12/28 08:31:07;;;;;;;0.05;0.05;;;8.40;95.20;;;;;;5005472;28;20049;-69
2022/12/28 08:33:33;;;;;;;0.90;0.90;;;8.50;95.30;;;;;;5008510;28;20137;-69
2022/12/28 08:35:59;;;;;;;0.00;0.00;;;8.50;95.30;;;;;;5004377;28;20505;-68
2022/12/28 08:38:24;;;;;;;0.03;0.03;;;8.60;95.40;;;;;;5007551;28;20871;-68
2022/12/28 08:40:57;;;;;;;0.00;0.00;;;8.50;95.30;;;;;;5009543;28;20521;-75
2022/12/28 08:43:23;;;;;;;0.00;0.00;;;8.50;95.40;;;;;;5002950;28;20061;-69
2022/12/28 08:46:02;;;;;;;0.00;0.00;;;8.40;95.30;;;;;;4991877;28;20061;-73
2022/12/28 08:48:28;;;;;;;0.00;0.00;;;8.40;95.30;;;;;;4987846;28;20096;-69
2022/12/28 08:50:55;;;;;;;0.00;0.00;;;8.40;95.30;;;;;;4988686;28;20622;-69
2022/12/28 08:53:23;;;;;;;0.00;0.00;;;8.40;95.30;;;;;;5002256;28;20062;-69
2022/12/28 08:55:50;;;;;;;0.00;0.00;;;8.40;95.40;;;;;;5006846;28;20160;-69
2022/12/28 08:58:16;;;;;;;0.00;0.00;;;8.50;95.50;;;;;;5006388;28;20116;-66
2022/12/28 09:00:41;;;;;;;0.00;0.00;;;8.60;95.40;;;;;;4988462;28;20080;-68
2022/12/28 09:03:07;;;;;;;0.45;0.45;;;8.60;95.40;;;;;;5007486;28;20077;-67
2022/12/28 09:05:36;;;;;;;0.00;0.00;;;8.60;95.40;;;;;;5006595;28;20076;-68
2022/12/28 09:08:02;;;;;;;0.00;0.00;;;8.60;95.40;;;;;;5005923;28;20065;-68
2022/12/28 09:10:27;;;;;;;0.00;0.00;;;8.60;95.40;;;;;;5002056;28;20490;-68
2022/12/28 09:12:53;;;;;;;0.10;0.10;;;8.60;95.40;;;;;;5007109;28;20058;-68
2022/12/28 09:15:19;;;;;;;0.00;0.00;;;8.60;95.40;;;;;;5008657;28;20052;-69
2022/12/28 09:17:44;;;;;;;0.05;0.05;;;8.60;95.40;;;;;;5000963;28;20088;-69
2022/12/28 09:20:10;;;;;;;0.00;0.00;;;8.70;95.40;;;;;;5000347;28;20498;-66
2022/12/28 09:22:36;;;;;;;0.00;0.00;;;8.70;95.40;;;;;;5008525;28;20129;-68
2022/12/28 09:25:01;;;;;;;0.00;0.00;;;8.90;95.40;;;;;;5002233;28;20038;-69
2022/12/28 09:27:27;;;;;;;0.00;0.00;;;8.80;95.40;;;;;;4977102;28;20053;-68
2022/12/28 09:29:52;;;;;;;0.00;0.00;;;8.90;95.60;;;;;;5005926;28;20041;-69
2022/12/28 09:32:18;;;;;;;0.00;0.00;;;8.90;95.40;;;;;;4985351;28;20050;-67
2022/12/28 09:34:43;;;;;;;0.10;0.10;;;9.00;95.40;;;;;;4998701;28;20111;-69
2022/12/28 09:37:09;;;;;;;0.00;0.00;;;8.90;95.40;;;;;;5004336;28;20054;-69
2022/12/28 09:39:35;;;;;;;0.00;0.00;;;8.90;95.40;;;;;;5006703;28;20042;-69
2022/12/28 09:42:13;;;;;;;0.00;0.00;;;8.90;95.30;;;;;;5007934;28;20177;-68
2022/12/28 09:44:54;;;;;;;0.00;0.00;;;8.80;95.30;;;;;;4999901;28;20053;-69
2022/12/28 09:47:44;;;;;;;0.00;0.00;;;8.70;95.40;;;;;;4970040;28;20161;-68
2022/12/28 09:50:16;;;;;;;0.00;0.00;;;8.70;95.40;;;;;;5000419;28;20034;-68
2022/12/28 09:53:19;;;;;;;0.00;0.00;;;8.60;95.30;;;;;;5005869;28;20050;-68
2022/12/28 09:56:02;;;;;;;0.00;0.00;;;8.60;95.40;;;;;;5004432;28;20120;-68
2022/12/28 09:58:31;;;;;;;0.00;0.00;;;8.60;95.30;;;;;;5006312;28;20442;-68
2022/12/28 10:00:59;;;;;;;0.00;0.00;;;8.60;95.40;;;;;;4970282;28;20050;-68
2022/12/28 10:03:30;;;;;;;0.00;0.00;;;8.50;95.50;;;;;;5007276;28;20129;-68
2022/12/28 10:05:57;;;;;;;0.10;0.10;;;8.50;95.50;;;;;;5001859;28;20047;-67
2022/12/28 10:08:24;;;;;;;0.00;0.00;;;8.50;95.50;;;;;;5006187;28;20079;-68
2022/12/28 10:10:51;;;;;;;0.00;0.00;;;8.50;95.50;;;;;;5004239;28;20042;-69
2022/12/28 10:13:21;;;;;;;0.00;0.00;;;8.40;95.50;;;;;;5005304;28;20069;-68
2022/12/28 10:15:47;;;;;;;0.00;0.00;;;8.50;95.50;;;;;;5004117;28;20071;-68
2022/12/28 10:18:14;;;;;;;0.10;0.10;;;8.50;95.50;;;;;;5007595;28;20470;-68
2022/12/28 10:20:42;;;;;;;0.00;0.00;;;8.50;95.60;;;;;;5002689;28;20038;-68
2022/12/28 10:23:13;;;;;;;0.00;0.00;;;8.40;95.50;;;;;;5007319;28;20064;-68
2022/12/28 10:25:39;;;;;;;0.00;0.00;;;8.40;95.50;;;;;;5004140;28;20124;-68
2022/12/28 10:28:10;;;;;;;0.00;0.00;;;8.40;95.50;;;;;;4980033;28;20112;-68
2022/12/28 10:31:11;;;;;;;0.10;0.10;;;8.50;95.50;;;;;;5005013;28;20034;-68
2022/12/28 10:33:48;;;;;;;0.10;0.10;;;8.50;95.50;;;;;;4908739;29;20039;-68
2022/12/28 10:36:17;;;;;;;0.00;0.00;;;8.40;95.40;;;;;;4990971;28;20512;-68
2022/12/28 10:38:49;;;;;;;0.10;0.10;;;8.50;95.50;;;;;;4986771;28;20511;-68
2022/12/28 10:41:17;;;;;;;0.00;0.00;;;8.40;95.50;;;;;;5004299;28;20058;-69
2022/12/28 10:43:51;;;;;;;0.00;0.00;;;8.40;95.60;;;;;;5007489;28;20053;-68
2022/12/28 10:46:20;;;;;;;0.08;0.08;;;8.40;95.50;;;;;;4990439;28;20052;-68
2022/12/28 10:48:59;;;;;;;0.00;0.00;;;8.40;95.50;;;;;;5004462;28;20060;-68
2022/12/28 10:51:28;;;;;;;0.00;0.00;;;8.50;95.50;;;;;;4986931;28;20491;-68
2022/12/28 10:53:56;;;;;;;0.00;0.00;;;8.40;95.50;;;;;;5007296;28;20054;-66
2022/12/28 10:56:28;;;;;;;0.03;0.03;;;8.40;95.50;;;;;;5004698;28;20521;-67
2022/12/28 10:59:18;;;;;;;0.00;0.00;;;8.40;95.60;;;;;;4982319;28;20889;-67
2022/12/28 11:01:43;;;;;;;0.00;0.00;;;8.40;95.60;;;;;;5007866;28;20054;-67
2022/12/28 11:04:19;;;;;;;0.10;0.10;;;8.40;95.60;;;;;;5008094;28;20061;-69
2022/12/28 11:06:56;;;;;;;0.00;0.00;;;8.40;95.50;;;;;;4989517;28;20568;-71
2022/12/28 11:09:27;;;;;;;0.00;0.00;;;8.40;95.50;;;;;;5001450;28;20042;-68
2022/12/28 11:12:13;;;;;;;0.65;0.65;;;8.40;95.50;;;;;;5005768;28;20061;-68
2022/12/28 11:14:39;;;;;;;0.00;0.00;;;8.40;95.50;;;;;;5004045;28;20446;-68
2022/12/28 11:17:25;;;;;;;0.08;0.08;;;8.40;95.50;;;;;;4989172;28;20042;-69
2022/12/28 11:19:55;;;;;;;0.08;0.08;;;8.40;95.50;;;;;;5010316;28;20074;-68
2022/12/28 11:22:26;;;;;;;0.00;0.00;;;8.40;95.60;;;;;;5009013;28;20089;-68
2022/12/28 11:24:52;;;;;;;0.00;0.00;;;8.40;95.50;;;;;;5002611;28;20037;-68
2022/12/28 11:27:21;;;;;;;0.17;0.17;;;8.50;95.40;;;;;;5003921;28;20054;-67
2022/12/28 11:29:51;;;;;;;0.00;0.00;;;8.50;95.40;;;;;;4968762;28;20878;-67
2022/12/28 11:33:12;;;;;;;0.00;0.00;;;8.50;95.50;;;;;;5001879;28;20058;-64
2022/12/28 11:35:39;;;;;;;0.00;0.00;;;8.50;95.60;;;;;;4957787;28;20089;-67
2022/12/28 11:38:06;;;;;;;0.00;0.00;;;8.60;95.60;;;;;;5000936;28;20104;-67
2022/12/28 11:40:44;;;;;;;0.00;0.00;;;8.60;95.50;;;;;;4996574;28;20053;-67
2022/12/28 11:43:27;;;;;;;0.00;0.00;;;8.60;95.50;;;;;;4989624;28;20058;-67
2022/12/28 11:46:01;;;;;;;0.00;0.00;;;8.60;95.50;;;;;;4984013;28;20552;-68
2022/12/28 11:48:42;;;;;;;0.00;0.00;;;8.60;95.60;;;;;;4985994;28;20066;-67
2022/12/28 11:51:36;;;;;;;0.20;0.20;;;8.60;95.50;;;;;;4993774;28;20072;-67
2022/12/28 11:54:34;;;;;;;0.00;0.00;;;8.60;95.50;;;;;;4999752;28;20052;-66
2022/12/28 11:57:00;;;;;;;0.00;0.00;;;8.60;95.50;;;;;;5004237;28;20046;-66
2022/12/28 11:59:29;;;;;;;0.10;0.10;;;8.60;95.50;;;;;;5003837;28;20042;-68
2022/12/28 12:02:18;;;;;;;0.00;0.00;;;8.60;95.60;;;;;;5003922;28;20041;-68
2022/12/28 12:04:45;;;;;;;0.00;0.00;;;8.60;95.50;;;;;;4977086;28;20506;-69
2022/12/28 12:07:16;;;;;;;0.00;0.00;;;8.50;95.50;;;;;;5005491;28;20061;-69
2022/12/28 12:09:45;;;;;;;0.00;0.00;;;8.60;95.50;;;;;;4992360;28;20045;-69
2022/12/28 12:12:13;;;;;;;0.00;0.00;;;8.60;95.50;;;;;;4979772;28;20077;-69
2022/12/28 12:15:13;;;;;;;0.00;0.00;;;8.60;95.50;;;;;;5007154;28;20125;-69
2022/12/28 12:17:47;;;;;;;0.00;0.00;;;8.60;95.50;;;;;;5006089;28;20052;-66
2022/12/28 12:20:40;;;;;;;0.00;0.00;;;8.60;95.70;;;;;;5009698;28;20093;-65
2022/12/28 12:23:32;;;;;;;0.00;0.00;;;8.50;95.60;;;;;;4977608;28;20049;-66
2022/12/28 12:26:19;;;;;;;0.00;0.00;;;8.60;95.50;;;;;;4994925;28;20065;-68
2022/12/28 12:28:51;;;;;;;0.00;0.00;;;8.50;95.60;;;;;;5007653;28;20081;-68
2022/12/28 12:31:29;;;;;;;0.10;0.10;;;8.50;95.60;;;;;;5000783;28;20045;-67
2022/12/28 12:34:24;;;;;;;0.00;0.00;;;8.40;95.60;;;;;;5010301;28;20070;-68
2022/12/28 12:37:16;;;;;;;0.03;0.03;;;8.60;95.60;;;;;;4974119;28;20042;-68
2022/12/28 12:40:08;;;;;;;0.00;0.00;;;8.50;95.60;;;;;;5004158;28;20518;-68
2022/12/28 12:42:47;;;;;;;0.00;0.00;;;8.60;95.50;;;;;;5007161;28;20104;-68
2022/12/28 12:45:41;;;;;;;0.00;0.00;;;8.60;95.50;;;;;;5000681;28;20086;-68
2022/12/28 12:48:20;;;;;;;0.00;0.00;;;8.50;95.50;;;;;;5003470;28;20049;-68
2022/12/28 12:50:58;;;;;;;0.00;0.00;;;8.50;95.60;;;;;;5003319;28;20038;-68
2022/12/28 12:53:29;;;;;;;0.00;0.00;;;8.50;95.50;;;;;;5010522;28;20081;-68
2022/12/28 12:56:13;;;;;;;0.00;0.00;;;8.50;95.40;;;;;;5006036;28;20077;-68
2022/12/28 12:58:47;;;;;;;0.00;0.00;;;8.50;95.40;;;;;;4993417;28;20744;-68
2022/12/28 13:01:31;;;;;;;0.00;0.00;;;8.60;95.40;;;;;;5003156;28;20065;-68
2022/12/28 13:04:06;;;;;;;0.10;0.10;;;8.50;95.40;;;;;;5011175;28;20129;-68
2022/12/28 13:06:34;;;;;;;0.47;0.47;;;8.50;95.30;;;;;;4971865;28;20153;-68
2022/12/28 13:09:02;;;;;;;0.00;0.00;;;8.50;95.40;;;;;;5007835;28;20061;-68
2022/12/28 13:11:29;;;;;;;0.00;0.00;;;8.60;95.30;;;;;;5008692;28;20050;-68
2022/12/28 13:13:55;;;;;;;0.00;0.00;;;8.50;95.40;;;;;;4975639;28;20137;-68
2022/12/28 13:16:23;;;;;;;0.00;0.00;;;8.50;95.20;;;;;;5008074;28;20053;-68
2022/12/28 13:18:56;;;;;;;0.05;0.05;;;8.60;95.10;;;;;;4999265;28;20042;-68
2022/12/28 13:21:23;;;;;;;0.00;0.00;;;8.50;95.20;;;;;;4984447;28;20430;-68
2022/12/28 13:23:49;;;;;;;0.00;0.00;;;8.50;95.00;;;;;;4991189;28;20057;-71
2022/12/28 13:26:15;;;;;;;0.00;0.00;;;8.40;95.10;;;;;;5009446;28;20074;-68
2022/12/28 13:28:52;;;;;;;0.00;0.00;;;8.40;95.10;;;;;;5009743;28;20045;-68
2022/12/28 13:31:21;;;;;;;0.00;0.00;;;8.40;95.00;;;;;;5008635;28;20053;-68
2022/12/28 13:34:02;;;;;;;0.00;0.00;;;8.40;94.90;;;;;;5009508;28;20042;-68
2022/12/28 13:36:28;;;;;;;0.00;0.00;;;8.40;94.90;;;;;;5009740;28;20525;-69
2022/12/28 13:39:24;;;;;;;0.00;0.00;;;8.40;94.90;;;;;;4964768;28;20049;-69